Time;durP1;ratioP1;P1;durP2;ratioP2;P2;SDS_P1;SDS_P2;PMS_P1;PMS_P2;Temp;Humidity;BMP_temperature;BMP_pressure;BME280_temperature;BME280_humidity;BME280_pressure;Samples;Min_cycle;Max_cycle;Signal;HPM_P1;HPM_P2
2022/12/28 08:05:41;;;;;;;11.28;4.58;;;;;;;2.13;100.00;101316.53;1817062;77;28882;-84
2022/12/28 08:08:25;;;;;;;12.78;5.28;;;;;;;2.19;100.00;101321.63;1787267;78;20975;-80
2022/12/28 08:11:13;;;;;;;5.67;4.08;;;;;;;2.29;100.00;101329.63;1762065;78;21017;-81
2022/12/28 08:13:57;;;;;;;9.58;4.55;;;;;;;2.43;100.00;101329.69;1754018;81;21045;-81
2022/12/28 08:16:42;;;;;;;7.45;4.40;;;;;;;2.57;100.00;101321.41;1779164;78;21029;-80
2022/12/28 08:19:27;;;;;;;7.58;4.05;;;;;;;2.70;100.00;101333.27;1722438;83;20961;-81
2022/12/28 08:22:12;;;;;;;8.30;4.40;;;;;;;2.79;100.00;101333.35;1734203;80;21331;-84
2022/12/28 08:24:56;;;;;;;6.92;4.35;;;;;;;2.89;100.00;101339.70;1740545;81;20994;-83
2022/12/28 08:27:41;;;;;;;8.43;4.40;;;;;;;2.95;100.00;101338.36;1719351;81;21550;-84
2022/12/28 08:30:27;;;;;;;10.38;3.95;;;;;;;2.97;100.00;101343.04;1744034;81;21028;-83
2022/12/28 08:33:12;;;;;;;7.60;4.20;;;;;;;2.92;100.00;101348.23;1747451;81;21384;-84
2022/12/28 08:35:56;;;;;;;8.03;3.87;;;;;;;2.90;100.00;101347.60;1739278;81;21024;-86
2022/12/28 08:38:42;;;;;;;8.38;4.17;;;;;;;2.89;100.00;101346.45;1755750;81;20998;-86
2022/12/28 08:41:27;;;;;;;9.45;4.17;;;;;;;2.84;100.00;101345.71;1737513;81;21029;-83
2022/12/28 08:44:12;;;;;;;9.18;4.15;;;;;;;2.80;100.00;101352.58;1746435;80;21029;-84
2022/12/28 08:46:57;;;;;;;10.25;4.15;;;;;;;2.81;100.00;101343.43;1737091;81;21076;-85
2022/12/28 08:49:43;;;;;;;5.42;3.77;;;;;;;2.84;100.00;101343.53;1744305;80;21030;-86
2022/12/28 08:52:28;;;;;;;8.43;4.10;;;;;;;2.94;100.00;101344.81;1749916;81;21081;-86
2022/12/28 08:55:12;;;;;;;8.85;4.17;;;;;;;3.05;100.00;101342.52;1751369;81;20990;-85
2022/12/28 08:57:57;;;;;;;9.40;4.10;;;;;;;3.15;100.00;101353.73;1720010;83;21084;-86
2022/12/28 09:00:42;;;;;;;6.65;3.87;;;;;;;3.21;100.00;101347.48;1717837;81;21000;-86
2022/12/28 09:03:26;;;;;;;11.95;4.20;;;;;;;3.26;100.00;101337.41;1711940;82;21081;-84
2022/12/28 09:06:14;;;;;;;7.75;4.00;;;;;;;3.32;100.00;101350.92;1736720;81;20999;-85
2022/12/28 09:08:59;;;;;;;10.10;4.03;;;;;;;3.41;100.00;101356.43;1719517;81;21014;-84
2022/12/28 09:11:44;;;;;;;8.55;3.37;;;;;;;3.51;100.00;101352.44;1717283;81;21008;-85
2022/12/28 09:14:28;;;;;;;6.15;4.35;;;;;;;3.53;100.00;101354.42;1717832;81;21000;-86
2022/12/28 09:17:13;;;;;;;7.65;3.80;;;;;;;3.55;100.00;101368.56;1702228;84;21012;-86
2022/12/28 09:19:57;;;;;;;7.47;3.80;;;;;;;3.54;100.00;101371.79;1729760;82;20979;-86
2022/12/28 09:22:43;;;;;;;7.35;3.58;;;;;;;3.57;100.00;101369.19;1721132;81;21946;-86
2022/12/28 09:25:27;;;;;;;6.78;3.25;;;;;;;3.58;100.00;101362.73;1737813;81;21042;-85
2022/12/28 09:28:12;;;;;;;11.65;4.35;;;;;;;3.53;100.00;101367.93;1745514;81;21444;-86
2022/12/28 09:30:56;;;;;;;8.05;3.55;;;;;;;3.55;100.00;101357.75;1742343;82;21081;-85
2022/12/28 09:33:59;;;;;;;8.23;4.20;;;;;;;3.60;100.00;101363.35;1745713;81;20995;-85
2022/12/28 09:36:44;;;;;;;10.10;4.58;;;;;;;3.67;100.00;101362.81;1715863;82;20982;-85
2022/12/28 09:39:29;;;;;;;6.60;3.47;;;;;;;3.71;100.00;101365.91;1725269;82;21003;-85
2022/12/28 09:42:25;;;;;;;8.55;3.55;;;;;;;3.88;100.00;101369.33;1731724;81;21062;-85
2022/12/28 09:45:10;;;;;;;5.85;3.42;;;;;;;3.95;100.00;101376.05;1732270;82;20998;-84
2022/12/28 09:47:59;;;;;;;6.75;2.98;;;;;;;3.94;100.00;101389.80;1744714;81;21469;-85
2022/12/28 09:50:44;;;;;;;6.30;3.12;;;;;;;3.90;100.00;101384.49;1751885;81;20950;-86
2022/12/28 09:53:31;;;;;;;6.22;3.40;;;;;;;3.94;100.00;101374.92;1745678;81;20987;-87
2022/12/28 09:56:37;;;;;;;8.38;3.02;;;;;;;4.00;100.00;101378.11;1718832;82;21002;-85
2022/12/28 09:59:23;;;;;;;9.13;3.72;;;;;;;4.01;100.00;101386.03;1748163;81;21058;-84
2022/12/28 10:02:19;;;;;;;8.20;3.77;;;;;;;4.02;100.00;101393.61;1750877;81;21010;-87
2022/12/28 10:05:04;;;;;;;5.90;2.90;;;;;;;4.06;100.00;101384.04;1752541;81;21432;-87
2022/12/28 10:07:51;;;;;;;4.30;2.65;;;;;;;4.07;100.00;101391.92;1726881;81;21068;-86
2022/12/28 10:10:38;;;;;;;7.60;2.52;;;;;;;4.08;100.00;101393.59;1741334;81;21023;-88
2022/12/28 10:13:28;;;;;;;5.33;2.42;;;;;;;4.10;100.00;101400.13;1724421;83;20995;-86
2022/12/28 10:16:17;;;;;;;5.70;2.58;;;;;;;4.02;100.00;101393.61;1719480;81;21002;-86
2022/12/28 10:19:05;;;;;;;7.70;2.47;;;;;;;3.96;100.00;101406.12;1754749;81;21053;-85
2022/12/28 10:22:00;;;;;;;7.53;2.85;;;;;;;3.98;100.00;101403.18;1731947;82;21032;-86
2022/12/28 10:24:46;;;;;;;7.28;2.77;;;;;;;4.01;100.00;101404.13;1718800;81;21011;-87
2022/12/28 10:27:30;;;;;;;6.72;3.25;;;;;;;4.05;100.00;101401.29;1721621;82;21017;-85
2022/12/28 10:30:25;;;;;;;8.33;3.40;;;;;;;4.07;100.00;101402.73;1730876;81;21076;-87
2022/12/28 10:33:08;;;;;;;6.65;2.83;;;;;;;4.11;100.00;101397.75;1703679;82;21012;-85
2022/12/28 10:35:53;;;;;;;7.35;2.80;;;;;;;4.12;100.00;101404.81;1733038;80;21750;-86
2022/12/28 10:38:38;;;;;;;7.03;3.25;;;;;;;4.11;100.00;101401.81;1733074;80;21012;-85
2022/12/28 10:41:35;;;;;;;6.08;3.00;;;;;;;4.09;100.00;101412.83;1689312;81;21625;-88
2022/12/28 10:44:35;;;;;;;5.12;2.83;;;;;;;4.08;100.00;101411.70;1732385;81;21475;-86
2022/12/28 10:47:35;;;;;;;5.85;3.22;;;;;;;4.03;100.00;101411.48;1754808;81;21017;-87
2022/12/28 10:50:43;;;;;;;7.62;3.65;;;;;;;4.04;100.00;101417.22;1747182;81;20996;-86
2022/12/28 10:53:31;;;;;;;9.45;3.10;;;;;;;4.02;100.00;101421.48;1732052;81;21395;-86
2022/12/28 10:56:25;;;;;;;4.60;3.00;;;;;;;3.98;100.00;101422.11;1743668;81;20994;-86
2022/12/28 10:59:20;;;;;;;9.35;3.35;;;;;;;4.00;100.00;101424.91;1760121;81;21516;-85
2022/12/28 11:02:28;;;;;;;10.88;3.42;;;;;;;4.01;100.00;101429.83;1748147;81;21018;-87
2022/12/28 11:05:23;;;;;;;4.25;2.60;;;;;;;4.02;100.00;101426.89;1725823;81;21006;-86
2022/12/28 11:08:11;;;;;;;7.40;2.62;;;;;;;4.01;100.00;101432.00;1728851;80;21472;-87
2022/12/28 11:10:57;;;;;;;3.75;2.37;;;;;;;4.01;100.00;101436.59;1706748;83;21456;-87
2022/12/28 11:13:48;;;;;;;4.87;2.50;;;;;;;4.01;100.00;101432.00;1721702;83;21507;-87
2022/12/28 11:16:36;;;;;;;5.83;2.80;;;;;;;4.03;100.00;101439.89;1735042;81;21479;-86
2022/12/28 11:19:21;;;;;;;6.53;2.90;;;;;;;4.08;100.00;101442.28;1746438;81;20982;-86
2022/12/28 11:22:10;;;;;;;11.38;3.67;;;;;;;4.17;100.00;101434.76;1742594;81;21034;-85
2022/12/28 11:24:55;;;;;;;5.40;2.70;;;;;;;4.25;100.00;101440.45;1733367;81;20980;-85
2022/12/28 11:27:40;;;;;;;6.47;2.98;;;;;;;4.34;100.00;101445.12;1729040;81;21000;-86
2022/12/28 11:30:25;;;;;;;7.92;2.98;;;;;;;4.41;100.00;101441.34;1728825;82;21012;-85
2022/12/28 11:33:39;;;;;;;10.78;3.67;;;;;;;4.45;100.00;101437.67;1735260;81;20984;-86
2022/12/28 11:36:25;;;;;;;4.67;2.90;;;;;;;4.47;100.00;101445.06;1758818;80;21097;-86
2022/12/28 11:39:29;;;;;;;10.53;2.80;;;;;;;4.41;100.00;101443.22;1759763;81;21490;-86
2022/12/28 11:42:39;;;;;;;5.58;2.98;;;;;;;4.32;100.00;101441.27;1737295;80;20994;-85
2022/12/28 11:45:51;;;;;;;4.37;2.92;;;;;;;4.13;100.00;101445.72;1726784;81;21048;-85
2022/12/28 11:48:56;;;;;;;6.25;3.00;;;;;;;4.00;100.00;101449.78;1729096;82;20997;-85
2022/12/28 11:51:41;;;;;;;5.87;2.98;;;;;;;3.90;100.00;101449.39;1747879;81;21464;-87
2022/12/28 11:54:37;;;;;;;4.75;2.92;;;;;;;3.88;100.00;101455.00;1729386;81;21029;-85
2022/12/28 11:57:39;;;;;;;6.97;2.87;;;;;;;3.98;100.00;101455.42;1713777;82;21010;-85
2022/12/28 14:04:31;;;;;;;6.03;2.58;;;;;;;1.43;100.00;101583.76;1795937;77;28965;-82
2022/12/28 14:07:17;;;;;;;7.35;2.92;;;;;;;1.39;100.00;101597.30;1701291;83;21024;-83
2022/12/28 14:10:02;;;;;;;9.05;3.42;;;;;;;1.43;100.00;101599.92;1739833;81;21523;-83
2022/12/28 14:12:48;;;;;;;14.18;6.50;;;;;;;1.44;100.00;101609.69;1748941;81;20957;-83
2022/12/28 14:15:34;;;;;;;19.05;7.72;;;;;;;1.41;100.00;101612.73;1756377;81;21014;-83
2022/12/28 14:18:19;;;;;;;21.62;8.35;;;;;;;1.37;100.00;101615.51;1752771;81;20989;-82
2022/12/28 14:21:05;;;;;;;17.55;6.30;;;;;;;1.35;100.00;101615.69;1740139;81;21057;-82
2022/12/28 14:23:49;;;;;;;7.03;3.70;;;;;;;1.28;100.00;101620.98;1747344;80;21532;-83
2022/12/28 14:26:35;;;;;;;8.68;3.10;;;;;;;1.23;100.00;101616.69;1744275;81;21009;-83
2022/12/28 14:29:31;;;;;;;9.58;4.00;;;;;;;1.24;100.00;101620.23;1753581;81;21037;-83
2022/12/28 14:32:16;;;;;;;8.68;3.85;;;;;;;1.26;100.00;101621.72;1738415;81;21052;-83
2022/12/28 14:35:01;;;;;;;10.72;4.58;;;;;;;1.26;100.00;101632.48;1758402;81;21029;-83
2022/12/28 14:37:45;;;;;;;9.83;3.77;;;;;;;1.26;100.00;101632.48;1747011;81;21516;-83
2022/12/28 14:40:32;;;;;;;10.90;4.95;;;;;;;1.26;100.00;101641.05;1737842;80;20987;-82
2022/12/28 14:43:26;;;;;;;7.22;3.08;;;;;;;1.28;100.00;101634.97;1733034;81;21038;-83
2022/12/28 14:46:18;;;;;;;4.37;2.60;;;;;;;1.33;100.00;101638.45;1784057;79;21078;-83
2022/12/28 14:49:32;;;;;;;;;;;;;;;1.36;100.00;101638.92;1746496;81;21108;-83
2022/12/28 14:52:23;;;;;;;6.67;2.42;;;;;;;1.35;100.00;101642.63;1721719;83;25989;-82
2022/12/28 14:55:34;;;;;;;11.88;4.53;;;;;;;1.31;100.00;101643.19;1640066;85;21047;-83
2022/12/28 14:58:24;;;;;;;10.13;3.67;;;;;;;1.26;100.00;101644.61;1726957;83;21069;-82
2022/12/28 15:01:08;;;;;;;6.65;3.02;;;;;;;1.16;100.00;101647.25;1733431;81;20998;-82
2022/12/28 15:03:57;;;;;;;6.35;3.20;;;;;;;1.07;100.00;101646.02;1735554;81;21026;-82
2022/12/28 15:06:42;;;;;;;6.97;2.90;;;;;;;1.01;100.00;101651.30;1743968;81;21096;-82
2022/12/28 15:09:27;;;;;;;8.88;2.80;;;;;;;0.93;100.00;101643.34;1734672;81;21065;-83
2022/12/28 15:12:21;;;;;;;9.83;2.77;;;;;;;0.90;100.00;101649.92;1741392;81;21009;-82
2022/12/28 15:15:08;;;;;;;11.25;3.80;;;;;;;0.85;100.00;101645.62;1758722;81;21057;-82
2022/12/28 15:17:54;;;;;;;10.60;3.92;;;;;;;0.75;100.00;101652.62;1755251;81;21049;-83
2022/12/28 15:20:38;;;;;;;10.82;3.70;;;;;;;0.66;100.00;101658.27;1742454;81;21534;-83
2022/12/28 15:23:23;;;;;;;8.43;4.22;;;;;;;0.58;100.00;101651.13;1731269;81;21558;-83
2022/12/28 15:26:09;;;;;;;9.75;2.60;;;;;;;0.51;100.00;101647.50;1732870;81;21493;-83
2022/12/28 15:28:53;;;;;;;5.80;2.42;;;;;;;0.41;100.00;101647.24;1732279;81;21100;-82
2022/12/28 15:31:38;;;;;;;8.13;2.70;;;;;;;0.30;100.00;101649.05;1741646;81;21065;-82
2022/12/28 15:34:22;;;;;;;8.08;2.62;;;;;;;0.22;100.00;101654.47;1733975;81;21041;-82
2022/12/28 15:37:07;;;;;;;19.10;5.60;;;;;;;0.14;100.00;101658.07;1741079;81;21010;-82
2022/12/28 15:39:52;;;;;;;23.02;9.00;;;;;;;0.07;100.00;101647.71;1741793;80;21395;-83
2022/12/28 15:42:36;;;;;;;23.52;8.03;;;;;;;-0.01;100.00;101655.34;1752713;81;21026;-83
2022/12/28 15:45:21;;;;;;;25.92;8.23;;;;;;;-0.08;100.00;101651.70;1743662;81;21119;-82
2022/12/28 15:48:05;;;;;;;25.80;8.35;;;;;;;-0.16;100.00;101650.94;1772002;80;21044;-82
2022/12/28 15:50:49;;;;;;;21.73;6.67;;;;;;;-0.26;100.00;101656.03;1766008;80;21021;-82
2022/12/28 15:53:34;;;;;;;16.65;4.45;;;;;;;-0.35;100.00;101662.46;1763929;81;21056;-82
2022/12/28 15:56:21;;;;;;;5.42;1.95;;;;;;;-0.43;100.00;101659.84;1765090;80;21044;-82
2022/12/28 15:59:11;;;;;;;4.42;1.90;;;;;;;-0.53;100.00;101664.09;1743127;81;21067;-82
2022/12/28 16:01:55;;;;;;;2.90;2.10;;;;;;;-0.66;100.00;101659.81;1754078;81;21073;-82
2022/12/28 16:04:39;;;;;;;6.53;1.70;;;;;;;-0.77;100.00;101653.47;1741859;81;21053;-83
2022/12/28 16:07:24;;;;;;;5.80;1.72;;;;;;;-0.90;100.00;101658.89;1707309;83;21029;-83
2022/12/28 16:10:09;;;;;;;3.52;1.42;;;;;;;-0.98;100.00;101658.94;1747343;81;21013;-82
2022/12/28 16:12:53;;;;;;;6.70;2.50;;;;;;;-1.04;100.00;101656.94;1719676;82;21543;-82
2022/12/28 16:15:38;;;;;;;11.73;3.80;;;;;;;-1.11;100.00;101663.52;1681488;85;21500;-82
2022/12/28 16:18:24;;;;;;;17.55;8.25;;;;;;;-1.18;100.00;101663.05;1755607;81;21013;-82
2022/12/28 16:21:09;;;;;;;5.85;3.60;;;;;;;-1.24;100.00;101663.20;1731122;82;20987;-82
2022/12/28 16:23:54;;;;;;;5.35;2.22;;;;;;;-1.30;100.00;101665.25;1732863;81;21025;-82
2022/12/28 16:26:38;;;;;;;3.33;1.52;;;;;;;-1.37;100.00;101657.55;1707626;83;21080;-83
2022/12/28 16:29:23;;;;;;;4.15;2.33;;;;;;;-1.43;100.00;101664.95;1699504;83;21108;-82
2022/12/28 16:32:07;;;;;;;4.90;1.95;;;;;;;-1.52;100.00;101662.27;1732269;81;21002;-82
2022/12/28 16:34:55;;;;;;;5.62;2.40;;;;;;;-1.60;100.00;101663.63;1712671;82;20989;-83
2022/12/28 16:37:40;;;;;;;5.12;1.75;;;;;;;-1.67;100.00;101669.84;1739667;81;21053;-82
2022/12/28 16:40:25;;;;;;;3.22;1.67;;;;;;;-1.75;100.00;101666.16;1734342;81;21543;-82
2022/12/28 16:43:09;;;;;;;4.03;1.77;;;;;;;-1.80;100.00;101670.35;1732382;82;20965;-83
2022/12/28 16:45:54;;;;;;;6.33;1.80;;;;;;;-1.86;100.00;101666.99;1749190;81;21005;-82
2022/12/28 16:48:38;;;;;;;5.12;1.82;;;;;;;-1.91;100.00;101664.81;1702127;83;21470;-83
2022/12/28 16:51:23;;;;;;;5.95;1.62;;;;;;;-1.88;100.00;101665.84;1714851;81;21152;-83
2022/12/28 16:54:14;;;;;;;3.55;1.37;;;;;;;-1.89;100.00;101676.20;1748406;81;21055;-83
2022/12/28 16:57:00;;;;;;;6.78;2.25;;;;;;;-1.90;100.00;101679.90;1698926;82;21049;-83
2022/12/28 16:59:44;;;;;;;2.02;1.40;;;;;;;-1.91;100.00;101676.86;1729515;81;21555;-82
2022/12/28 17:02:29;;;;;;;3.55;1.95;;;;;;;-1.90;100.00;101679.03;1714353;82;21020;-82
2022/12/28 17:05:15;;;;;;;3.58;1.77;;;;;;;-1.88;100.00;101681.05;1755864;79;20978;-82
2022/12/28 17:08:03;;;;;;;13.32;3.75;;;;;;;-1.83;100.00;101679.56;1735209;81;21041;-82
2022/12/28 17:10:48;;;;;;;10.35;3.55;;;;;;;-1.78;100.00;101678.56;1739552;81;21076;-83
2022/12/28 17:13:33;;;;;;;5.55;2.45;;;;;;;-1.74;100.00;101671.84;1705470;82;21017;-83
2022/12/28 17:16:17;;;;;;;5.75;2.60;;;;;;;-1.66;100.00;101676.86;1748261;81;21021;-83
2022/12/28 17:19:02;;;;;;;5.28;2.52;;;;;;;-1.59;100.00;101677.86;1734939;81;21435;-82
2022/12/28 17:21:47;;;;;;;8.85;2.27;;;;;;;-1.52;100.00;101682.88;1737765;81;21439;-82
2022/12/28 17:24:32;;;;;;;4.60;1.67;;;;;;;-1.44;100.00;101686.88;1739518;81;21021;-82
2022/12/28 17:27:16;;;;;;;3.90;2.52;;;;;;;-1.39;100.00;101681.84;1733914;82;21002;-82
2022/12/28 17:30:01;;;;;;;3.58;2.00;;;;;;;-1.36;100.00;101684.20;1757832;81;21033;-82
2022/12/28 17:32:45;;;;;;;5.25;2.30;;;;;;;-1.33;100.00;101679.84;1726387;81;21518;-82
2022/12/28 17:35:30;;;;;;;4.35;2.20;;;;;;;-1.30;100.00;101682.67;1743571;81;21066;-82
2022/12/28 17:38:15;;;;;;;5.95;2.52;;;;;;;-1.25;100.00;101681.66;1748368;81;21013;-82
2022/12/28 17:41:11;;;;;;;2.70;1.82;;;;;;;-1.21;100.00;101681.66;1737570;81;21484;-82
2022/12/28 17:43:57;;;;;;;6.50;2.12;;;;;;;-1.18;100.00;101679.14;1724988;81;21435;-82
2022/12/28 17:46:41;;;;;;;5.70;2.40;;;;;;;-1.14;100.00;101685.81;1763345;81;20993;-82
2022/12/28 17:49:26;;;;;;;6.85;2.35;;;;;;;-1.06;100.00;101686.29;1741139;81;21006;-82
2022/12/28 17:52:16;;;;;;;9.25;3.25;;;;;;;-0.99;100.00;101686.80;1733709;82;21096;-83
2022/12/28 17:54:57;;;;;;;8.38;3.15;;;;;;;-0.93;100.00;101686.09;1752232;81;21517;-83
2022/12/28 20:07:53;;;;;;;9.38;4.25;;;;;;;-2.13;100.00;101682.88;1823255;77;28893;-81
2022/12/28 20:10:38;;;;;;;12.70;5.83;;;;;;;-2.08;100.00;101692.59;1781178;79;21045;-81
2022/12/28 20:13:23;;;;;;;20.27;7.47;;;;;;;-1.97;100.00;101694.45;1794654;78;21544;-81
2022/12/28 20:16:08;;;;;;;23.83;8.90;;;;;;;-1.91;100.00;101696.12;1778011;78;21058;-81
2022/12/28 20:18:53;;;;;;;17.62;7.80;;;;;;;-1.86;100.00;101690.59;1763915;80;21014;-81
2022/12/28 20:21:40;;;;;;;18.65;6.75;;;;;;;-1.76;100.00;101691.27;1779526;79;21029;-81
2022/12/28 20:24:25;;;;;;;10.88;5.20;;;;;;;-1.70;100.00;101689.77;1784183;79;21038;-82
2022/12/28 20:27:10;;;;;;;10.95;4.60;;;;;;;-1.65;100.00;101687.94;1789855;79;21465;-82
2022/12/28 20:29:54;;;;;;;6.97;3.83;;;;;;;-1.58;100.00;101689.77;1775861;79;20984;-82
2022/12/28 20:32:39;;;;;;;9.45;3.67;;;;;;;-1.57;100.00;101683.89;1784604;79;21565;-81
2022/12/28 20:35:25;;;;;;;7.97;4.60;;;;;;;-1.50;100.00;101682.72;1721656;81;21063;-82
2022/12/28 20:38:12;;;;;;;8.43;4.28;;;;;;;-1.45;100.00;101682.54;1765950;79;20991;-82
2022/12/28 20:41:08;;;;;;;8.08;4.30;;;;;;;-1.39;100.00;101672.45;1778546;79;21174;-81
2022/12/28 20:43:52;;;;;;;8.23;4.22;;;;;;;-1.33;100.00;101683.86;1778653;79;20983;-81
2022/12/28 20:46:37;;;;;;;7.22;3.83;;;;;;;-1.25;100.00;101689.70;1728295;81;21007;-82
2022/12/28 20:49:23;;;;;;;7.62;3.72;;;;;;;-1.16;100.00;101686.52;1773569;79;21873;-82
2022/12/28 20:52:07;;;;;;;8.50;4.42;;;;;;;-1.12;100.00;101682.45;1725030;81;21020;-82
2022/12/28 20:54:52;;;;;;;6.17;3.30;;;;;;;-1.11;100.00;101682.81;1784516;78;20971;-82
2022/12/28 20:57:37;;;;;;;7.12;3.40;;;;;;;-1.04;100.00;101681.59;1752665;79;20968;-82
2022/12/28 21:00:22;;;;;;;5.70;3.62;;;;;;;-1.06;100.00;101678.23;1783621;80;21019;-82
2022/12/28 21:03:06;;;;;;;5.87;3.35;;;;;;;-1.04;100.00;101679.73;1778615;79;20995;-82
2022/12/28 21:05:52;;;;;;;9.73;3.87;;;;;;;-0.99;100.00;101678.75;1715386;81;21453;-83
2022/12/28 21:08:37;;;;;;;5.03;3.30;;;;;;;-1.00;100.00;101682.42;1717050;82;21462;-83
2022/12/28 21:11:23;;;;;;;7.50;3.42;;;;;;;-0.98;100.00;101686.28;1725973;81;21193;-84
2022/12/28 21:14:08;;;;;;;6.78;3.08;;;;;;;-0.97;100.00;101679.89;1735432;81;21565;-83
2022/12/28 21:16:53;;;;;;;8.25;4.35;;;;;;;-0.94;100.00;101675.52;1718198;82;21624;-82
2022/12/28 21:19:37;;;;;;;5.10;2.90;;;;;;;-0.88;100.00;101668.13;1736780;82;21460;-82
2022/12/28 21:22:22;;;;;;;10.28;3.87;;;;;;;-0.84;100.00;101665.92;1714708;81;20994;-83
2022/12/28 21:25:08;;;;;;;7.35;3.47;;;;;;;-0.79;100.00;101668.91;1732879;81;21068;-82
2022/12/28 21:27:55;;;;;;;8.28;3.42;;;;;;;-0.76;100.00;101683.35;1770605;79;21047;-82
2022/12/28 21:30:39;;;;;;;6.80;3.10;;;;;;;-0.77;100.00;101677.63;1707898;81;21533;-82
2022/12/28 21:33:26;;;;;;;10.10;4.20;;;;;;;-0.75;100.00;101676.45;1701536;84;21019;-82
2022/12/28 21:36:14;;;;;;;5.60;3.55;;;;;;;-0.74;100.00;101678.14;1709077;82;21439;-82
2022/12/28 21:38:58;;;;;;;8.90;4.78;;;;;;;-0.71;100.00;101679.12;1702558;82;20908;-83
2022/12/28 21:41:52;;;;;;;8.93;3.15;;;;;;;-0.67;100.00;101670.20;1712170;82;21030;-83
2022/12/28 21:44:29;;;;;;;6.85;3.80;;;;;;;-0.67;100.00;101672.88;1769588;80;21030;-82
2022/12/28 21:47:16;;;;;;;7.67;2.95;;;;;;;-0.66;100.00;101665.17;1778734;79;21050;-83
2022/12/28 21:50:02;;;;;;;5.15;3.00;;;;;;;-0.65;100.00;101655.59;1776091;80;21051;-82
2022/12/28 21:52:46;;;;;;;6.17;2.80;;;;;;;-0.56;100.00;101646.16;1784115;79;21046;-82
2022/12/28 21:55:42;;;;;;;5.83;3.42;;;;;;;-0.56;100.00;101647.00;1708282;82;21058;-82
2022/12/28 21:58:27;;;;;;;8.20;3.50;;;;;;;-0.52;100.00;101646.13;1722665;82;21015;-83
2022/12/28 22:07:21;;;;;;;7.45;2.87;;;;;;;-0.35;100.00;101648.20;1720958;81;20986;-83
2022/12/28 22:13:09;;;;;;;6.35;3.40;;;;;;;-0.42;100.00;101645.89;1733043;81;21527;-82
2022/12/28 22:15:56;;;;;;;9.23;3.40;;;;;;;-0.37;100.00;101640.83;1675537;82;21058;-83
2022/12/28 22:18:41;;;;;;;9.43;4.62;;;;;;;-0.32;100.00;101637.09;1716156;82;21043;-83
